sensor_id;sensor_type;location;lat;lon;timestamp;pressure;altitude;pressure_sealevel;temperature;humidity
76046;BME280;64741;41.730;44.788;2024-01-15T00:02:54;998;;;21.5;39.5
76046;BME280;64741;41.730;44.788;2024-01-15T00:08:16;997.9;;;21.4;39.6
76046;BME280;64741;41.730;44.788;2024-01-15T00:23:14;997.8;;;21.4;39.6
76046;BME280;64741;41.730;44.788;2024-01-15T00:28:14;997.6;;;21.3;39.7
76046;BME280;64741;41.730;44.788;2024-01-15T00:33:12;997.6;;;21.3;39.7
76046;BME280;64741;41.730;44.788;2024-01-15T00:38:18;997.6;;;21.3;39.7
76046;BME280;64741;41.730;44.788;2024-01-15T00:43:14;997.5;;;21.3;39.7
76046;BME280;64741;41.730;44.788;2024-01-15T00:48:14;997.5;;;21.3;39.7
76046;BME280;64741;41.730;44.788;2024-01-15T00:53:08;997.5;;;21.3;39.6
76046;BME280;64741;41.730;44.788;2024-01-15T00:58:14;997.4;;;21.3;39.7
76046;BME280;64741;41.730;44.788;2024-01-15T01:03:00;997.4;;;21.3;39.6
76046;BME280;64741;41.730;44.788;2024-01-15T01:08:14;997.3;;;21.3;39.6
76046;BME280;64741;41.730;44.788;2024-01-15T01:13:14;997.2;;;21.3;39.6
76046;BME280;64741;41.730;44.788;2024-01-15T01:18:08;997.1;;;21.3;39.6
76046;BME280;64741;41.730;44.788;2024-01-15T01:23:14;997.1;;;21.3;39.5
76046;BME280;64741;41.730;44.788;2024-01-15T01:28:18;997.1;;;21.3;39.6
76046;BME280;64741;41.730;44.788;2024-01-15T01:33:06;997;;;21.3;39.7
76046;BME280;64741;41.730;44.788;2024-01-15T01:38:08;997;;;21.3;39.7
76046;BME280;64741;41.730;44.788;2024-01-15T01:43:16;996.9;;;21.3;39.7
76046;BME280;64741;41.730;44.788;2024-01-15T01:48:14;997;;;21.3;39.7
76046;BME280;64741;41.730;44.788;2024-01-15T01:53:02;996.9;;;21.3;39.6
76046;BME280;64741;41.730;44.788;2024-01-15T01:58:14;996.9;;;21.3;39.6
76046;BME280;64741;41.730;44.788;2024-01-15T02:03:12;996.9;;;21.3;39.6
76046;BME280;64741;41.730;44.788;2024-01-15T02:08:14;996.8;;;21.2;39.6
76046;BME280;64741;41.730;44.788;2024-01-15T02:13:17;996.8;;;21.2;39.5
76046;BME280;64741;41.730;44.788;2024-01-15T02:18:14;996.8;;;21.2;39.5
76046;BME280;64741;41.730;44.788;2024-01-15T02:23:14;996.7;;;21.2;39.4
76046;BME280;64741;41.730;44.788;2024-01-15T02:28:09;996.7;;;21.2;39.4
76046;BME280;64741;41.730;44.788;2024-01-15T02:33:04;996.7;;;21.2;39.4
76046;BME280;64741;41.730;44.788;2024-01-15T02:38:14;996.7;;;21.2;39.4
76046;BME280;64741;41.730;44.788;2024-01-15T02:43:12;996.7;;;21.2;39.4
76046;BME280;64741;41.730;44.788;2024-01-15T02:48:14;996.7;;;21.2;39.4
76046;BME280;64741;41.730;44.788;2024-01-15T02:53:14;996.7;;;21.2;39.4
76046;BME280;64741;41.730;44.788;2024-01-15T02:58:12;996.7;;;21.2;39.3
76046;BME280;64741;41.730;44.788;2024-01-15T03:03:19;996.6;;;21.2;39.3
76046;BME280;64741;41.730;44.788;2024-01-15T03:07:56;996.6;;;21.2;39.4
76046;BME280;64741;41.730;44.788;2024-01-15T03:13:08;996.7;;;21.2;39.3
76046;BME280;64741;41.730;44.788;2024-01-15T03:18:14;996.7;;;21.2;39.3
76046;BME280;64741;41.730;44.788;2024-01-15T03:23:14;996.7;;;21.2;39.3
76046;BME280;64741;41.730;44.788;2024-01-15T03:28:14;996.7;;;21.2;39.4
76046;BME280;64741;41.730;44.788;2024-01-15T03:33:14;996.8;;;21.2;39.3
76046;BME280;64741;41.730;44.788;2024-01-15T03:38:14;996.9;;;21.2;39.3
76046;BME280;64741;41.730;44.788;2024-01-15T03:43:13;996.9;;;21.2;39.2
76046;BME280;64741;41.730;44.788;2024-01-15T03:48:13;996.9;;;21.2;39
76046;BME280;64741;41.730;44.788;2024-01-15T03:53:06;996.9;;;21.1;38.9
76046;BME280;64741;41.730;44.788;2024-01-15T03:58:16;997;;;21.1;38.9
76046;BME280;64741;41.730;44.788;2024-01-15T04:03:06;997.1;;;21.1;38.8
76046;BME280;64741;41.730;44.788;2024-01-15T04:08:08;997;;;21.1;38.9
76046;BME280;64741;41.730;44.788;2024-01-15T04:13:18;996.9;;;21.1;38.7
76046;BME280;64741;41.730;44.788;2024-01-15T04:18:09;996.9;;;21.1;38.6
76046;BME280;64741;41.730;44.788;2024-01-15T04:23:09;996.9;;;21.1;38.7
76046;BME280;64741;41.730;44.788;2024-01-15T04:28:14;996.9;;;21.1;38.6
76046;BME280;64741;41.730;44.788;2024-01-15T04:33:14;996.8;;;21.1;38.4
76046;BME280;64741;41.730;44.788;2024-01-15T04:37:54;996.8;;;21.1;38.4
76046;BME280;64741;41.730;44.788;2024-01-15T04:43:17;996.8;;;21.1;38.4
76046;BME280;64741;41.730;44.788;2024-01-15T04:48:08;996.8;;;21.1;38.2
76046;BME280;64741;41.730;44.788;2024-01-15T04:53:18;996.8;;;21;38.2
76046;BME280;64741;41.730;44.788;2024-01-15T04:58:09;996.9;;;21;38.1
76046;BME280;64741;41.730;44.788;2024-01-15T05:03:16;996.9;;;21;38
76046;BME280;64741;41.730;44.788;2024-01-15T05:08:01;996.9;;;21;38
76046;BME280;64741;41.730;44.788;2024-01-15T05:13:14;997;;;21;38
76046;BME280;64741;41.730;44.788;2024-01-15T05:18:18;997;;;21;38
76046;BME280;64741;41.730;44.788;2024-01-15T05:23:15;997.1;;;21;38
76046;BME280;64741;41.730;44.788;2024-01-15T05:28:14;997.1;;;21;38.1
76046;BME280;64741;41.730;44.788;2024-01-15T05:33:17;997.2;;;21;38.1
76046;BME280;64741;41.730;44.788;2024-01-15T05:38:16;997.2;;;21;38
76046;BME280;64741;41.730;44.788;2024-01-15T05:43:09;997.2;;;21;38
76046;BME280;64741;41.730;44.788;2024-01-15T05:48:17;997.2;;;21;38
76046;BME280;64741;41.730;44.788;2024-01-15T05:52:59;997.3;;;21;38
76046;BME280;64741;41.730;44.788;2024-01-15T05:58:15;997.3;;;21;38.1
76046;BME280;64741;41.730;44.788;2024-01-15T06:03:15;997.3;;;21;38.1
76046;BME280;64741;41.730;44.788;2024-01-15T06:08:13;997.3;;;21;38.1
76046;BME280;64741;41.730;44.788;2024-01-15T06:13:15;997.3;;;21;38
76046;BME280;64741;41.730;44.788;2024-01-15T06:18:07;997.3;;;21;38.1
76046;BME280;64741;41.730;44.788;2024-01-15T06:23:15;997.3;;;21;38.1
76046;BME280;64741;41.730;44.788;2024-01-15T06:28:17;997.2;;;21;37.9
76046;BME280;64741;41.730;44.788;2024-01-15T06:33:09;997.3;;;20.9;37.7
76046;BME280;64741;41.730;44.788;2024-01-15T06:38:09;997.3;;;20.9;37.8
76046;BME280;64741;41.730;44.788;2024-01-15T06:43:20;997.3;;;20.9;37.8
76046;BME280;64741;41.730;44.788;2024-01-15T06:48:15;997.3;;;20.9;37.9
76046;BME280;64741;41.730;44.788;2024-01-15T06:53:13;997.2;;;20.9;38
76046;BME280;64741;41.730;44.788;2024-01-15T06:58:15;997.2;;;20.9;38
76046;BME280;64741;41.730;44.788;2024-01-15T07:03:13;997.3;;;20.9;37.9
76046;BME280;64741;41.730;44.788;2024-01-15T07:08:15;997.3;;;20.9;37.9
76046;BME280;64741;41.730;44.788;2024-01-15T07:13:02;997.2;;;20.9;38
76046;BME280;64741;41.730;44.788;2024-01-15T07:18:15;997.2;;;20.9;37.9
76046;BME280;64741;41.730;44.788;2024-01-15T07:23:03;997.1;;;20.9;38.1
76046;BME280;64741;41.730;44.788;2024-01-15T07:28:07;997.1;;;20.9;38.8
76046;BME280;64741;41.730;44.788;2024-01-15T07:33:20;997.1;;;21;39.6
76046;BME280;64741;41.730;44.788;2024-01-15T07:38:16;997;;;21;40.1
76046;BME280;64741;41.730;44.788;2024-01-15T07:43:15;996.9;;;21.1;41.4
76046;BME280;64741;41.730;44.788;2024-01-15T07:48:01;996.8;;;21.1;42.3
76046;BME280;64741;41.730;44.788;2024-01-15T07:53:15;996.7;;;21.2;41.9
76046;BME280;64741;41.730;44.788;2024-01-15T07:57:59;996.6;;;21.2;41.5
76046;BME280;64741;41.730;44.788;2024-01-15T08:03:19;996.5;;;21.2;41.4
76046;BME280;64741;41.730;44.788;2024-01-15T08:08:18;996.4;;;21.3;42.2
76046;BME280;64741;41.730;44.788;2024-01-15T08:13:09;996.4;;;21.3;43.9
76046;BME280;64741;41.730;44.788;2024-01-15T08:18:15;996.3;;;21.3;45
76046;BME280;64741;41.730;44.788;2024-01-15T08:23:15;996.2;;;21.4;46
76046;BME280;64741;41.730;44.788;2024-01-15T08:28:13;996.1;;;21.4;46.7
76046;BME280;64741;41.730;44.788;2024-01-15T08:33:13;996.1;;;21.5;46.4
76046;BME280;64741;41.730;44.788;2024-01-15T08:38:13;996;;;21.5;47
76046;BME280;64741;41.730;44.788;2024-01-15T08:43:13;996;;;21.5;46.5
76046;BME280;64741;41.730;44.788;2024-01-15T08:48:15;995.9;;;21.5;46
76046;BME280;64741;41.730;44.788;2024-01-15T08:53:09;995.9;;;21.5;45.6
76046;BME280;64741;41.730;44.788;2024-01-15T08:58:20;995.9;;;21.5;45.6
76046;BME280;64741;41.730;44.788;2024-01-15T09:03:09;995.8;;;21.6;45.8
76046;BME280;64741;41.730;44.788;2024-01-15T09:08:07;995.7;;;21.6;46.3
76046;BME280;64741;41.730;44.788;2024-01-15T09:13:17;995.7;;;21.6;47
76046;BME280;64741;41.730;44.788;2024-01-15T09:18:09;995.6;;;21.6;46.9
76046;BME280;64741;41.730;44.788;2024-01-15T09:23:07;995.5;;;21.6;46.9
76046;BME280;64741;41.730;44.788;2024-01-15T09:28:15;995.5;;;21.6;47.5
76046;BME280;64741;41.730;44.788;2024-01-15T09:33:15;995.4;;;21.7;47.4
76046;BME280;64741;41.730;44.788;2024-01-15T09:38:13;995.3;;;21.7;48.3
76046;BME280;64741;41.730;44.788;2024-01-15T09:43:20;995.3;;;21.7;49.8
76046;BME280;64741;41.730;44.788;2024-01-15T09:48:09;995.2;;;21.8;50.2
76046;BME280;64741;41.730;44.788;2024-01-15T09:53:19;995.2;;;21.8;50.4
76046;BME280;64741;41.730;44.788;2024-01-15T09:58:07;995.1;;;21.9;50.7
76046;BME280;64741;41.730;44.788;2024-01-15T10:03:15;995;;;21.9;49.9
76046;BME280;64741;41.730;44.788;2024-01-15T10:08:01;994.9;;;21.9;49.5
76046;BME280;64741;41.730;44.788;2024-01-15T10:13:13;994.8;;;22;49.8
76046;BME280;64741;41.730;44.788;2024-01-15T10:18:19;994.7;;;22;50.2
76046;BME280;64741;41.730;44.788;2024-01-15T10:23:17;994.7;;;22.1;50.5
76046;BME280;64741;41.730;44.788;2024-01-15T10:28:15;994.6;;;22.1;50.5
76046;BME280;64741;41.730;44.788;2024-01-15T10:33:19;994.6;;;22.1;50.7
76046;BME280;64741;41.730;44.788;2024-01-15T10:38:17;994.5;;;22.1;50.5
76046;BME280;64741;41.730;44.788;2024-01-15T10:43:09;994.5;;;22.2;50.6
76046;BME280;64741;41.730;44.788;2024-01-15T10:48:19;994.5;;;22.2;50.7
76046;BME280;64741;41.730;44.788;2024-01-15T10:53:09;994.5;;;22.2;50.9
76046;BME280;64741;41.730;44.788;2024-01-15T10:58:15;994.5;;;22.2;51.5
76046;BME280;64741;41.730;44.788;2024-01-15T11:03:15;994.5;;;22.2;51.8
76046;BME280;64741;41.730;44.788;2024-01-15T11:08:16;994.4;;;22.3;52
76046;BME280;64741;41.730;44.788;2024-01-15T11:13:13;994.4;;;22.3;51.6
76046;BME280;64741;41.730;44.788;2024-01-15T11:18:09;994.4;;;22.3;50.8
76046;BME280;64741;41.730;44.788;2024-01-15T11:23:13;994.3;;;22.3;49.9
76046;BME280;64741;41.730;44.788;2024-01-15T11:28:30;994.3;;;22.3;49.3
76046;BME280;64741;41.730;44.788;2024-01-15T11:33:14;994.3;;;22.3;48.5
76046;BME280;64741;41.730;44.788;2024-01-15T11:38:09;994.3;;;22.3;47.9
76046;BME280;64741;41.730;44.788;2024-01-15T11:43:17;994.3;;;22.3;47.6
76046;BME280;64741;41.730;44.788;2024-01-15T11:48:13;994.3;;;22.3;47
76046;BME280;64741;41.730;44.788;2024-01-15T11:53:15;994.3;;;22.2;46.6
76046;BME280;64741;41.730;44.788;2024-01-15T11:58:13;994.4;;;22.2;46.2
76046;BME280;64741;41.730;44.788;2024-01-15T12:03:13;994.4;;;22.1;45.7
76046;BME280;64741;41.730;44.788;2024-01-15T12:07:43;994.5;;;22.1;45.4
76046;BME280;64741;41.730;44.788;2024-01-15T12:13:17;994.5;;;22.1;45.2
76046;BME280;64741;41.730;44.788;2024-01-15T12:18:11;994.5;;;22;44.7
76046;BME280;64741;41.730;44.788;2024-01-15T12:23:13;994.5;;;22;44.6
76046;BME280;64741;41.730;44.788;2024-01-15T12:28:07;994.6;;;21.9;44.4
76046;BME280;64741;41.730;44.788;2024-01-15T12:33:17;994.7;;;21.9;44.2
76046;BME280;64741;41.730;44.788;2024-01-15T12:38:13;994.7;;;21.9;43.9
76046;BME280;64741;41.730;44.788;2024-01-15T12:42:37;994.7;;;21.9;43.8
76046;BME280;64741;41.730;44.788;2024-01-15T12:48:13;994.7;;;21.8;44
76046;BME280;64741;41.730;44.788;2024-01-15T12:53:13;994.7;;;21.8;44.1
76046;BME280;64741;41.730;44.788;2024-01-15T12:58:13;994.8;;;21.8;44
76046;BME280;64741;41.730;44.788;2024-01-15T13:02:27;994.8;;;21.8;43.9
76046;BME280;64741;41.730;44.788;2024-01-15T13:08:17;994.8;;;21.8;43.8
76046;BME280;64741;41.730;44.788;2024-01-15T13:13:09;994.7;;;21.7;43.6
76046;BME280;64741;41.730;44.788;2024-01-15T13:18:13;994.6;;;21.7;43.6
76046;BME280;64741;41.730;44.788;2024-01-15T13:22:55;994.6;;;21.7;43.5
76046;BME280;64741;41.730;44.788;2024-01-15T13:28:13;994.7;;;21.7;43.5
76046;BME280;64741;41.730;44.788;2024-01-15T13:33:13;994.8;;;21.6;43.4
76046;BME280;64741;41.730;44.788;2024-01-15T13:38:11;994.8;;;21.6;43.3
76046;BME280;64741;41.730;44.788;2024-01-15T13:43:11;994.9;;;21.6;43.2
76046;BME280;64741;41.730;44.788;2024-01-15T13:48:13;995;;;21.6;43
76046;BME280;64741;41.730;44.788;2024-01-15T13:53:09;995;;;21.7;42.8
76046;BME280;64741;41.730;44.788;2024-01-15T13:58:17;995.1;;;21.7;42.6
76046;BME280;64741;41.730;44.788;2024-01-15T14:03:07;995.1;;;21.7;42.8
76046;BME280;64741;41.730;44.788;2024-01-15T14:08:09;995.1;;;21.7;42.9
76046;BME280;64741;41.730;44.788;2024-01-15T14:12:57;995.1;;;21.6;42.9
76046;BME280;64741;41.730;44.788;2024-01-15T14:18:09;995.1;;;21.6;43
76046;BME280;64741;41.730;44.788;2024-01-15T14:23:09;995.1;;;21.6;43.1
76046;BME280;64741;41.730;44.788;2024-01-15T14:28:13;995.1;;;21.6;43
76046;BME280;64741;41.730;44.788;2024-01-15T14:33:11;995.1;;;21.6;43
76046;BME280;64741;41.730;44.788;2024-01-15T14:38:17;995.2;;;21.6;43
76046;BME280;64741;41.730;44.788;2024-01-15T14:43:11;995.2;;;21.6;43
76046;BME280;64741;41.730;44.788;2024-01-15T14:48:13;995.3;;;21.6;42.9
76046;BME280;64741;41.730;44.788;2024-01-15T14:53:13;995.3;;;21.6;42.6
76046;BME280;64741;41.730;44.788;2024-01-15T14:58:13;995.3;;;21.6;42.4
76046;BME280;64741;41.730;44.788;2024-01-15T15:03:13;995.3;;;21.6;42.4
76046;BME280;64741;41.730;44.788;2024-01-15T15:08:07;995.4;;;21.6;42.4
76046;BME280;64741;41.730;44.788;2024-01-15T15:13:17;995.4;;;21.6;42.4
76046;BME280;64741;41.730;44.788;2024-01-15T15:18:09;995.4;;;21.6;42.4
76046;BME280;64741;41.730;44.788;2024-01-15T15:23:07;995.5;;;21.6;42.5
76046;BME280;64741;41.730;44.788;2024-01-15T15:28:17;995.5;;;21.6;42.4
76046;BME280;64741;41.730;44.788;2024-01-15T15:32:55;995.5;;;21.6;42.3
76046;BME280;64741;41.730;44.788;2024-01-15T15:38:09;995.6;;;21.6;42.2
76046;BME280;64741;41.730;44.788;2024-01-15T15:43:13;995.6;;;21.6;42.2
76046;BME280;64741;41.730;44.788;2024-01-15T15:48:13;995.7;;;21.6;42.2
76046;BME280;64741;41.730;44.788;2024-01-15T15:53:13;995.8;;;21.6;42.1
76046;BME280;64741;41.730;44.788;2024-01-15T15:58:17;995.9;;;21.5;42.1
76046;BME280;64741;41.730;44.788;2024-01-15T16:03:09;995.9;;;21.5;42.1
76046;BME280;64741;41.730;44.788;2024-01-15T16:08:01;996;;;21.5;42.2
76046;BME280;64741;41.730;44.788;2024-01-15T16:13:09;996;;;21.5;42.2
76046;BME280;64741;41.730;44.788;2024-01-15T16:18:17;996;;;21.5;42.1
76046;BME280;64741;41.730;44.788;2024-01-15T16:23:13;996;;;21.5;42.1
76046;BME280;64741;41.730;44.788;2024-01-15T16:28:13;996.1;;;21.5;42.1
76046;BME280;64741;41.730;44.788;2024-01-15T16:33:15;996;;;21.5;42.1
76046;BME280;64741;41.730;44.788;2024-01-15T16:38:17;996;;;21.5;41.9
76046;BME280;64741;41.730;44.788;2024-01-15T16:43:13;996;;;21.5;41.9
76046;BME280;64741;41.730;44.788;2024-01-15T16:48:17;996;;;21.6;41.8
76046;BME280;64741;41.730;44.788;2024-01-15T16:53:17;996.1;;;21.6;41.8
76046;BME280;64741;41.730;44.788;2024-01-15T16:58:07;996.1;;;21.6;41.8
76046;BME280;64741;41.730;44.788;2024-01-15T17:03:17;996.2;;;21.6;41.7
76046;BME280;64741;41.730;44.788;2024-01-15T17:08:07;996.2;;;21.6;41.6
76046;BME280;64741;41.730;44.788;2024-01-15T17:13:07;996.3;;;21.6;41.6
76046;BME280;64741;41.730;44.788;2024-01-15T17:18:13;996.2;;;21.7;41.6
76046;BME280;64741;41.730;44.788;2024-01-15T17:23:13;996.2;;;21.7;41.6
76046;BME280;64741;41.730;44.788;2024-01-15T17:27:53;996.2;;;21.7;41.6
76046;BME280;64741;41.730;44.788;2024-01-15T17:33:07;996.2;;;21.7;41.6
76046;BME280;64741;41.730;44.788;2024-01-15T17:38:13;996.2;;;21.7;41.5
76046;BME280;64741;41.730;44.788;2024-01-15T17:43:17;996.2;;;21.7;41.3
76046;BME280;64741;41.730;44.788;2024-01-15T17:48:09;996.3;;;21.7;41.3
76046;BME280;64741;41.730;44.788;2024-01-15T17:53:09;996.3;;;21.7;41.3
76046;BME280;64741;41.730;44.788;2024-01-15T17:58:17;996.3;;;21.7;41.3
76046;BME280;64741;41.730;44.788;2024-01-15T18:03:13;996.4;;;21.7;41.2
76046;BME280;64741;41.730;44.788;2024-01-15T18:08:13;996.4;;;21.7;41.3
76046;BME280;64741;41.730;44.788;2024-01-15T18:13:05;996.5;;;21.7;41.3
76046;BME280;64741;41.730;44.788;2024-01-15T18:18:13;996.5;;;21.7;41.3
76046;BME280;64741;41.730;44.788;2024-01-15T18:23:13;996.4;;;21.7;41.2
76046;BME280;64741;41.730;44.788;2024-01-15T18:28:17;996.5;;;21.7;41.2
76046;BME280;64741;41.730;44.788;2024-01-15T18:33:13;996.5;;;21.7;41.2
76046;BME280;64741;41.730;44.788;2024-01-15T18:38:13;996.5;;;21.7;41.1
76046;BME280;64741;41.730;44.788;2024-01-15T18:43:07;996.5;;;21.7;41.1
76046;BME280;64741;41.730;44.788;2024-01-15T18:48:17;996.5;;;21.7;41
76046;BME280;64741;41.730;44.788;2024-01-15T18:53:13;996.5;;;21.7;41.1
76046;BME280;64741;41.730;44.788;2024-01-15T18:58:13;996.5;;;21.7;41.1
76046;BME280;64741;41.730;44.788;2024-01-15T19:03:13;996.5;;;21.7;41.1
76046;BME280;64741;41.730;44.788;2024-01-15T19:07:55;996.5;;;21.7;41.1
76046;BME280;64741;41.730;44.788;2024-01-15T19:13:09;996.5;;;21.7;41.2
76046;BME280;64741;41.730;44.788;2024-01-15T19:18:13;996.6;;;21.7;41.1
76046;BME280;64741;41.730;44.788;2024-01-15T19:23:11;996.6;;;21.6;41.1
76046;BME280;64741;41.730;44.788;2024-01-15T19:28:07;996.6;;;21.6;41.1
76046;BME280;64741;41.730;44.788;2024-01-15T19:33:11;996.7;;;21.6;41.1
76046;BME280;64741;41.730;44.788;2024-01-15T19:38:11;996.7;;;21.6;40.9
76046;BME280;64741;41.730;44.788;2024-01-15T19:43:09;996.7;;;21.6;40.8
76046;BME280;64741;41.730;44.788;2024-01-15T19:48:11;996.8;;;21.6;40.5
76046;BME280;64741;41.730;44.788;2024-01-15T19:53:09;996.8;;;21.6;40.4
76046;BME280;64741;41.730;44.788;2024-01-15T19:58:09;996.9;;;21.6;40.4
76046;BME280;64741;41.730;44.788;2024-01-15T20:03:13;996.9;;;21.6;40.4
76046;BME280;64741;41.730;44.788;2024-01-15T20:08:09;996.9;;;21.6;40.6
76046;BME280;64741;41.730;44.788;2024-01-15T20:13:11;997;;;21.6;41.4
76046;BME280;64741;41.730;44.788;2024-01-15T20:18:09;997;;;21.6;42.6
76046;BME280;64741;41.730;44.788;2024-01-15T20:23:13;997.1;;;21.6;43.5
76046;BME280;64741;41.730;44.788;2024-01-15T20:28:09;997.1;;;21.6;44.5
76046;BME280;64741;41.730;44.788;2024-01-15T20:33:11;997.1;;;21.7;45.2
76046;BME280;64741;41.730;44.788;2024-01-15T20:38:11;997.1;;;21.7;46
76046;BME280;64741;41.730;44.788;2024-01-15T20:43:11;997.1;;;21.7;46.1
76046;BME280;64741;41.730;44.788;2024-01-15T20:47:49;997.1;;;21.7;45.5
76046;BME280;64741;41.730;44.788;2024-01-15T20:53:13;997.1;;;21.7;45.6
76046;BME280;64741;41.730;44.788;2024-01-15T20:58:13;997.1;;;21.7;45.4
76046;BME280;64741;41.730;44.788;2024-01-15T21:03:07;997.2;;;21.7;45.1
76046;BME280;64741;41.730;44.788;2024-01-15T21:08:11;997.2;;;21.7;44.7
76046;BME280;64741;41.730;44.788;2024-01-15T21:13:11;997.2;;;21.7;44.3
76046;BME280;64741;41.730;44.788;2024-01-15T21:18:09;997.2;;;21.7;44.1
76046;BME280;64741;41.730;44.788;2024-01-15T21:23:11;997.3;;;21.7;43.8
76046;BME280;64741;41.730;44.788;2024-01-15T21:28:12;997.4;;;21.6;43.6
76046;BME280;64741;41.730;44.788;2024-01-15T21:33:09;997.4;;;21.6;43.4
76046;BME280;64741;41.730;44.788;2024-01-15T21:38:11;997.5;;;21.6;43.2
76046;BME280;64741;41.730;44.788;2024-01-15T21:43:05;997.5;;;21.6;43.1
76046;BME280;64741;41.730;44.788;2024-01-15T21:48:15;997.5;;;21.6;42.9
76046;BME280;64741;41.730;44.788;2024-01-15T21:53:07;997.5;;;21.5;42.7
76046;BME280;64741;41.730;44.788;2024-01-15T21:58:07;997.5;;;21.5;42.5
76046;BME280;64741;41.730;44.788;2024-01-15T22:03:13;997.5;;;21.5;42.4
76046;BME280;64741;41.730;44.788;2024-01-15T22:08:09;997.5;;;21.5;42.3
76046;BME280;64741;41.730;44.788;2024-01-15T22:13:07;997.6;;;21.5;42.3
76046;BME280;64741;41.730;44.788;2024-01-15T22:18:11;997.6;;;21.5;42.2
76046;BME280;64741;41.730;44.788;2024-01-15T22:23:09;997.7;;;21.4;42.1
76046;BME280;64741;41.730;44.788;2024-01-15T22:28:09;997.7;;;21.4;42
76046;BME280;64741;41.730;44.788;2024-01-15T22:33:11;997.7;;;21.4;41.5
76046;BME280;64741;41.730;44.788;2024-01-15T22:38:07;997.7;;;21.5;41.9
76046;BME280;64741;41.730;44.788;2024-01-15T22:43:13;997.7;;;21.5;41.7
76046;BME280;64741;41.730;44.788;2024-01-15T22:48:05;997.9;;;21.5;41.6
76046;BME280;64741;41.730;44.788;2024-01-15T22:53:15;998;;;21.5;41.6
76046;BME280;64741;41.730;44.788;2024-01-15T22:58:09;998;;;21.5;41.6
76046;BME280;64741;41.730;44.788;2024-01-15T23:03:11;998;;;21.4;41.5
76046;BME280;64741;41.730;44.788;2024-01-15T23:08:13;998;;;21.4;42
76046;BME280;64741;41.730;44.788;2024-01-15T23:13:14;998;;;21.4;42.2
76046;BME280;64741;41.730;44.788;2024-01-15T23:18:09;998.1;;;21.4;42.3
76046;BME280;64741;41.730;44.788;2024-01-15T23:23:13;998.1;;;21.3;42.2
76046;BME280;64741;41.730;44.788;2024-01-15T23:28:13;998.1;;;21.3;41.8
76046;BME280;64741;41.730;44.788;2024-01-15T23:33:07;998;;;21.3;42
76046;BME280;64741;41.730;44.788;2024-01-15T23:38:13;998;;;21.2;42
76046;BME280;64741;41.730;44.788;2024-01-15T23:43:09;998;;;21.2;41.9
76046;BME280;64741;41.730;44.788;2024-01-15T23:48:11;998.1;;;21.2;41.8
76046;BME280;64741;41.730;44.788;2024-01-15T23:53:11;998.1;;;21.2;41.2
76046;BME280;64741;41.730;44.788;2024-01-15T23:58:11;998.1;;;21.2;41
